Sea Voyager — V7QU2 — position and weather

sailwx.info

Track history (hours):
 
Tides and Currents Weather Stations Pressure Air Temp Water Temp Dewpoint Dewpoint Depression Visibility Wind Speed Wind Dir Waves Ship Positions

Sea Voyager

Last reported at 2014-Oct-01 17:32 UTC. Time now 2014-Oct-01 18:31 UTC.
Position N 31°53' W 118°49'.

Length 243 m; draft 8 m.

Type: Ship (hazmat cat A). MMSI: 538003439.

Date/timePositionNaut miles runAvg speedWind from/ knotsBaromVisibWave heightAir tempDewpointWater temp
2014-Oct-01 17:32N 31°53' W 118°49'2 1.4
2014-Oct-01 16:23N 31°54' W 118°50'1 1.2
2014-Oct-01 15:32N 31°55' W 118°51'1 1.1
2014-Oct-01 14:29N 31°56' W 118°52'1 1.3
2014-Oct-01 13:24N 31°57' W 118°52'2 1.9
2014-Oct-01 12:33N 31°58' W 118°51'4 4.1
2014-Oct-01 11:33N 32°02' W 118°49'1212.0
2014-Oct-01 10:33N 32°12' W 118°40'1313.0
2014-Oct-01 09:33N 32°22' W 118°31'2612.9
2014-Oct-01 07:33N 32°43' W 118°13'1312.1
2014-Oct-01 06:31N 32°54' W 118°07'1111.7
2014-Oct-01 05:33N 33°05' W 118°03'1111.0
2014-Oct-01 04:33N 33°16' W 118°05'1111.0
2014-Oct-01 03:33N 33°27' W 118°09'1111.0
2014-Oct-01 02:33N 33°37' W 118°13'5 5.1
2014-Oct-01 01:33N 33°39' W 118°07'0 0.0
2014-Oct-01 00:32N 33°39' W 118°07'0 0.0
2014-Sep-30 23:32N 33°39' W 118°07'0 0.0
2014-Sep-30 22:29N 33°39' W 118°07'0 0.0
2014-Sep-30 21:32N 33°39' W 118°07'0 0.0
2014-Sep-30 20:32N 33°39' W 118°07'0 0.1
2014-Sep-30 19:32N 33°39' W 118°07'0 0.0
2014-Sep-30 18:32N 33°39' W 118°07'0 0.0
2014-Sep-30 16:05N 33°39' W 118°07'0 0.1
2014-Sep-30 15:23N 33°39' W 118°07'0 0.1
2014-Sep-30 14:29N 33°39' W 118°07'0 0.2
2014-Sep-30 13:32N 33°39' W 118°07'1 0.9
2014-Sep-30 12:33N 33°39' W 118°08'4 4.4
2014-Sep-30 11:33N 33°42' W 118°12'5 4.9
2014-Sep-30 10:33N 33°46' W 118°13'0 0.0
2014-Sep-30 09:06N 33°46' W 118°13'0 0.0
2014-Sep-30 08:30N 33°46' W 118°13'0 0.0
2014-Sep-30 07:33N 33°46' W 118°13'0 0.0
2014-Sep-30 06:24N 33°46' W 118°13'0 0.0
2014-Sep-30 05:33N 33°46' W 118°13'0 0.0
2014-Sep-30 04:30N 33°46' W 118°13'0 0.0
2014-Sep-30 03:15N 33°46' W 118°13'0 0.0
2014-Sep-30 02:27N 33°46' W 118°13'0 0.0
2014-Sep-30 01:33N 33°46' W 118°13'0 0.0
2014-Sep-30 00:33N 33°46' W 118°13'0 0.0
2014-Sep-29 23:33N 33°46' W 118°13'0 0.0
2014-Sep-29 22:24N 33°46' W 118°13'0 0.0
2014-Sep-29 21:33N 33°46' W 118°13'0 0.0
2014-Sep-29 20:33N 33°46' W 118°13'0 0.0
2014-Sep-29 19:33N 33°46' W 118°13'0 0.0
2014-Sep-29 18:33N 33°46' W 118°13'0 0.0
2014-Sep-29 17:33N 33°46' W 118°13'0 0.0
2014-Sep-29 16:33N 33°46' W 118°13'0 0.0
2014-Sep-29 15:33N 33°46' W 118°13'0 0.0
2014-Sep-29 14:33N 33°46' W 118°13'0 0.0
2014-Sep-29 13:33N 33°46' W 118°13'0 0.0
2014-Sep-29 12:33N 33°46' W 118°13'0 0.0
2014-Sep-29 11:33N 33°46' W 118°13'0 0.0
2014-Sep-29 10:33N 33°46' W 118°13'0 0.0
2014-Sep-29 09:33N 33°46' W 118°13'0 0.0
2014-Sep-29 08:33N 33°46' W 118°13'0 0.0
2014-Sep-29 07:33N 33°46' W 118°13'0 0.0
2014-Sep-29 06:33N 33°46' W 118°13'0 0.0
2014-Sep-29 05:33N 33°46' W 118°13'0 0.0
2014-Sep-29 04:33N 33°46' W 118°13'0 0.0
2014-Sep-29 03:33N 33°46' W 118°13'0 0.0
2014-Sep-29 02:33N 33°46' W 118°13'0 0.0
2014-Sep-29 01:33N 33°46' W 118°13'0 0.0
2014-Sep-29 00:33N 33°46' W 118°13'0 0.0
2014-Sep-28 23:33N 33°46' W 118°13'0 0.0
2014-Sep-28 22:33N 33°46' W 118°13'0 0.0
2014-Sep-28 21:33N 33°46' W 118°13'0 0.0
2014-Sep-28 20:33N 33°46' W 118°13'0 0.0
2014-Sep-28 19:33N 33°46' W 118°13'0 0.0
2014-Sep-28 18:33N 33°46' W 118°13'0 0.0
2014-Sep-28 17:33N 33°46' W 118°13'0 0.0
2014-Sep-28 16:33N 33°46' W 118°13'0 0.0
2014-Sep-28 15:33N 33°46' W 118°13'0 0.0
2014-Sep-28 14:33N 33°46' W 118°13'0 0.0
2014-Sep-28 13:33N 33°46' W 118°13'0 0.0
2014-Sep-28 12:33N 33°46' W 118°13'0 0.0
2014-Sep-28 11:33N 33°46' W 118°13'0 0.0
2014-Sep-28 10:33N 33°46' W 118°13'0 0.0
2014-Sep-28 09:33N 33°46' W 118°13'0 0.0
2014-Sep-28 08:33N 33°46' W 118°13'0 0.0
2014-Sep-28 07:30N 33°46' W 118°13'0 0.0
2014-Sep-28 06:33N 33°46' W 118°13'0 0.0
2014-Sep-28 05:30N 33°46' W 118°13'0 0.0
2014-Sep-28 04:33N 33°46' W 118°13'0 0.0
2014-Sep-28 03:30N 33°46' W 118°13'0 0.0
2014-Sep-28 02:33N 33°46' W 118°13'0 0.0
2014-Sep-28 01:33N 33°46' W 118°13'0 0.0
2014-Sep-28 00:33N 33°46' W 118°13'0 0.0
2014-Sep-27 23:33N 33°46' W 118°13'0 0.0
2014-Sep-27 22:33N 33°46' W 118°13'0 0.0
2014-Sep-27 21:33N 33°46' W 118°13'0 0.0
2014-Sep-27 20:30N 33°46' W 118°13'0 0.0
2014-Sep-27 19:33N 33°46' W 118°13'0 0.0
2014-Sep-27 18:33N 33°46' W 118°13'0 0.0
2014-Sep-27 17:33N 33°46' W 118°13'0 0.0
2014-Sep-27 16:33N 33°46' W 118°13'0 0.0
2014-Sep-27 15:33N 33°46' W 118°13'0 0.0
2014-Sep-27 14:33N 33°46' W 118°13'0 0.0
2014-Sep-27 13:30N 33°46' W 118°13'0 0.0
2014-Sep-27 12:33N 33°46' W 118°13'0 0.0
2014-Sep-27 11:33N 33°46' W 118°13'0 0.0
2014-Sep-27 10:33N 33°46' W 118°13'0 0.0
2014-Sep-27 09:33N 33°46' W 118°13'0 0.0
2014-Sep-27 08:33N 33°46' W 118°13'0 0.0
2014-Sep-27 07:33N 33°46' W 118°13'0 0.0
2014-Sep-27 06:30N 33°46' W 118°13'0 0.0
2014-Sep-27 05:24N 33°46' W 118°13'0 0.0
2014-Sep-27 04:30N 33°46' W 118°13'0 0.0
2014-Sep-27 03:30N 33°46' W 118°13'0 0.0
2014-Sep-27 02:30N 33°46' W 118°13'0 0.0
2014-Sep-27 01:30N 33°46' W 118°13'0 0.0
2014-Sep-27 00:24N 33°46' W 118°13'0 0.0
2014-Sep-26 23:30N 33°46' W 118°13'0 0.0
2014-Sep-26 22:30N 33°46' W 118°13'0 0.0
2014-Sep-26 21:30N 33°46' W 118°13'0 0.0
2014-Sep-26 20:33N 33°46' W 118°13'0 0.0
2014-Sep-26 19:33N 33°46' W 118°13'0 0.0
2014-Sep-26 18:33N 33°46' W 118°13'0 0.0
2014-Sep-26 17:33N 33°46' W 118°13'0 0.0
2014-Sep-26 16:33N 33°46' W 118°13'0 0.1
2014-Sep-26 15:33N 33°46' W 118°13'4 3.6
2014-Sep-26 14:33N 33°43' W 118°11'7 7.2
2014-Sep-26 13:33N 33°36' W 118°10'8 8.4
2014-Sep-26 12:33N 33°28' W 118°06'1111.5
2014-Sep-26 11:33N 33°17' W 118°02'1111.5
2014-Sep-26 10:33N 33°06' W 118°01'9 9.1
2014-Sep-26 09:33N 32°58' W 118°06'1211.5
2014-Sep-26 08:33N 32°47' W 118°11'1212.1
2014-Sep-26 07:33N 32°38' W 118°20'1212.2
2014-Sep-26 06:33N 32°28' W 118°28'1212.3
2014-Sep-26 05:33N 32°18' W 118°36'1212.2
2014-Sep-26 04:32N 32°08' W 118°46'1312.2
2014-Sep-26 03:27N 31°60' W 118°58'11 5.4
2014-Sep-26 01:23N 31°56' W 119°10'1 1.5
2014-Sep-26 00:33N 31°55' W 119°09'6 1.2
2014-Sep-25 19:31N 32°01' W 119°10'3 1.4
2014-Sep-25 17:10N 32°04' W 119°13'1 1.7
2014-Sep-25 16:31N 32°04' W 119°13'1 1.2
2014-Sep-25 15:31N 32°05' W 119°14'1 1.2
2014-Sep-25 14:31N 32°06' W 119°15'1 1.1
2014-Sep-25 13:28N 32°07' W 119°16'1 1.1
2014-Sep-25 12:22N 32°08' W 119°17'3 1.3
2014-Sep-25 10:23N 32°10' W 119°19'3 3.7
2014-Sep-25 09:33N 32°12' W 119°22'5 5.1
2014-Sep-25 08:33N 32°16' W 119°25'1010.2
2014-Sep-25 07:33N 32°11' W 119°35'1111.4
2014-Sep-25 06:33N 32°09' W 119°49'3 3.2
2014-Sep-25 05:30N 32°10' W 119°52'10 5.1
2014-Sep-25 03:33N 32°13' W 120°04'20113.2
2014-Sep-24 12:23N 34°12' W 123°18'3215.8
2014-Sep-24 10:23N 34°39' W 123°36'1315.8
2014-Sep-24 09:33N 34°51' W 123°44'1515.4
2014-Sep-24 08:33N 35°05' W 123°50'1615.7
2014-Sep-24 07:33N 35°21' W 123°49'1616.0
2014-Sep-24 06:33N 35°37' W 123°49'1615.7
2014-Sep-24 05:33N 35°53' W 123°49'1515.6
2014-Sep-24 04:33N 36°08' W 123°48'1715.6
2014-Sep-24 03:29N 36°25' W 123°48'1515.3
2014-Sep-24 02:30N 36°40' W 123°48'1515.3
2014-Sep-24 01:33N 36°55' W 123°47'1515.1
2014-Sep-24 00:33N 37°10' W 123°47'1414.4
2014-Sep-23 23:33N 37°19' W 123°33'1514.8
2014-Sep-23 22:33N 37°27' W 123°17'1514.7
2014-Sep-23 21:33N 37°36' W 123°02'1514.7
2014-Sep-23 20:33N 37°43' W 122°46'1211.9
2014-Sep-23 19:33N 37°48' W 122°32'9 9.3
2014-Sep-23 18:33N 37°55' W 122°25'1 0.6
2014-Sep-23 17:33N 37°55' W 122°25'0 0.0
2014-Sep-23 16:33N 37°55' W 122°25'0 0.0
2014-Sep-23 15:33N 37°55' W 122°25'0 0.0
2014-Sep-23 14:30N 37°55' W 122°25'0 0.0
2014-Sep-23 13:32N 37°55' W 122°25'0 0.0
2014-Sep-23 12:33N 37°55' W 122°25'0 0.0
2014-Sep-23 11:32N 37°55' W 122°25'0 0.0
2014-Sep-23 10:32N 37°55' W 122°25'0 0.0
2014-Sep-23 09:32N 37°55' W 122°25'0 0.0
2014-Sep-23 08:32N 37°55' W 122°25'0 0.0
2014-Sep-23 07:32N 37°55' W 122°25'0 0.0
2014-Sep-23 06:32N 37°55' W 122°25'0 0.0
2014-Sep-23 05:32N 37°55' W 122°25'0 0.0
2014-Sep-23 04:32N 37°55' W 122°25'0 0.0
2014-Sep-23 03:32N 37°55' W 122°25'0 0.0
2014-Sep-23 02:32N 37°55' W 122°25'0 0.0
2014-Sep-23 01:32N 37°55' W 122°25'0 0.0
2014-Sep-23 00:32N 37°55' W 122°25'0 0.0
2014-Sep-22 23:32N 37°55' W 122°25'0 0.0
2014-Sep-22 22:32N 37°55' W 122°25'0 0.0
2014-Sep-22 21:32N 37°55' W 122°25'0 0.0
2014-Sep-22 20:32N 37°55' W 122°25'0 0.0
2014-Sep-22 19:32N 37°55' W 122°25'0 0.0
2014-Sep-22 18:32N 37°55' W 122°25'0 0.0
2014-Sep-22 17:32N 37°55' W 122°25'0 0.0
2014-Sep-22 16:32N 37°55' W 122°25'0 0.0
2014-Sep-22 15:29N 37°55' W 122°25'0 0.0
2014-Sep-22 14:32N 37°55' W 122°25'0 0.0
2014-Sep-22 13:29N 37°55' W 122°25'0 0.0
2014-Sep-22 12:32N 37°55' W 122°25'0 0.0
2014-Sep-22 11:32N 37°55' W 122°25'0 0.0
2014-Sep-22 10:29N 37°55' W 122°25'0 0.0
2014-Sep-22 09:32N 37°55' W 122°25'0 0.0
2014-Sep-22 08:30N 37°55' W 122°25'0 0.0
2014-Sep-22 07:29N 37°55' W 122°25'0 0.0
2014-Sep-22 06:32N 37°55' W 122°25'0 0.0
2014-Sep-22 05:32N 37°55' W 122°25'0 0.0
2014-Sep-22 04:30N 37°55' W 122°25'0 0.0
2014-Sep-22 03:32N 37°55' W 122°25'0 0.0
2014-Sep-22 02:32N 37°55' W 122°25'0 0.0
2014-Sep-22 01:32N 37°55' W 122°25'0 0.0
2014-Sep-22 00:32N 37°55' W 122°25'0 0.0
2014-Sep-21 23:32N 37°55' W 122°25'0 0.0
2014-Sep-21 22:32N 37°55' W 122°25'0 0.0
2014-Sep-21 21:32N 37°55' W 122°25'0 0.0
2014-Sep-21 20:29N 37°55' W 122°25'0 0.0
2014-Sep-21 19:32N 37°55' W 122°25'0 0.0
2014-Sep-21 18:32N 37°55' W 122°25'0 0.0
2014-Sep-21 17:32N 37°55' W 122°25'  
Track history (hours):
 
Tides and Currents Weather Stations Pressure Air Temp Water Temp Dewpoint Dewpoint Depression Visibility Wind Speed Wind Dir Waves Ship Positions

Sea Voyager

Last reported at 2014-Oct-01 17:32 UTC. Time now 2014-Oct-01 18:31 UTC.
Position N 31°53' W 118°49'.

Length 243 m; draft 8 m.

Type: Ship (hazmat cat A). MMSI: 538003439.

Date/timePositionNaut miles runAvg speedWind from/ knotsBaromVisibWave heightAir tempDewpointWater temp
2014-Oct-01 17:32N 31°53' W 118°49'2 1.4
2014-Oct-01 16:23N 31°54' W 118°50'1 1.2
2014-Oct-01 15:32N 31°55' W 118°51'1 1.1
2014-Oct-01 14:29N 31°56' W 118°52'1 1.3
2014-Oct-01 13:24N 31°57' W 118°52'2 1.9
2014-Oct-01 12:33N 31°58' W 118°51'4 4.1
2014-Oct-01 11:33N 32°02' W 118°49'1212.0
2014-Oct-01 10:33N 32°12' W 118°40'1313.0
2014-Oct-01 09:33N 32°22' W 118°31'2612.9
2014-Oct-01 07:33N 32°43' W 118°13'1312.1
2014-Oct-01 06:31N 32°54' W 118°07'1111.7
2014-Oct-01 05:33N 33°05' W 118°03'1111.0
2014-Oct-01 04:33N 33°16' W 118°05'1111.0
2014-Oct-01 03:33N 33°27' W 118°09'1111.0
2014-Oct-01 02:33N 33°37' W 118°13'5 5.1
2014-Oct-01 01:33N 33°39' W 118°07'0 0.0
2014-Oct-01 00:32N 33°39' W 118°07'0 0.0
2014-Sep-30 23:32N 33°39' W 118°07'0 0.0
2014-Sep-30 22:29N 33°39' W 118°07'0 0.0
2014-Sep-30 21:32N 33°39' W 118°07'0 0.0
2014-Sep-30 20:32N 33°39' W 118°07'0 0.1
2014-Sep-30 19:32N 33°39' W 118°07'0 0.0
2014-Sep-30 18:32N 33°39' W 118°07'0 0.0
2014-Sep-30 16:05N 33°39' W 118°07'0 0.1
2014-Sep-30 15:23N 33°39' W 118°07'0 0.1
2014-Sep-30 14:29N 33°39' W 118°07'0 0.2
2014-Sep-30 13:32N 33°39' W 118°07'1 0.9
2014-Sep-30 12:33N 33°39' W 118°08'4 4.4
2014-Sep-30 11:33N 33°42' W 118°12'5 4.9
2014-Sep-30 10:33N 33°46' W 118°13'0 0.0
2014-Sep-30 09:06N 33°46' W 118°13'0 0.0
2014-Sep-30 08:30N 33°46' W 118°13'0 0.0
2014-Sep-30 07:33N 33°46' W 118°13'0 0.0
2014-Sep-30 06:24N 33°46' W 118°13'0 0.0
2014-Sep-30 05:33N 33°46' W 118°13'0 0.0
2014-Sep-30 04:30N 33°46' W 118°13'0 0.0
2014-Sep-30 03:15N 33°46' W 118°13'0 0.0
2014-Sep-30 02:27N 33°46' W 118°13'0 0.0
2014-Sep-30 01:33N 33°46' W 118°13'0 0.0
2014-Sep-30 00:33N 33°46' W 118°13'0 0.0
2014-Sep-29 23:33N 33°46' W 118°13'0 0.0
2014-Sep-29 22:24N 33°46' W 118°13'0 0.0
2014-Sep-29 21:33N 33°46' W 118°13'0 0.0
2014-Sep-29 20:33N 33°46' W 118°13'0 0.0
2014-Sep-29 19:33N 33°46' W 118°13'0 0.0
2014-Sep-29 18:33N 33°46' W 118°13'0 0.0
2014-Sep-29 17:33N 33°46' W 118°13'0 0.0
2014-Sep-29 16:33N 33°46' W 118°13'0 0.0
2014-Sep-29 15:33N 33°46' W 118°13'0 0.0
2014-Sep-29 14:33N 33°46' W 118°13'0 0.0
2014-Sep-29 13:33N 33°46' W 118°13'0 0.0
2014-Sep-29 12:33N 33°46' W 118°13'0 0.0
2014-Sep-29 11:33N 33°46' W 118°13'0 0.0
2014-Sep-29 10:33N 33°46' W 118°13'0 0.0
2014-Sep-29 09:33N 33°46' W 118°13'0 0.0
2014-Sep-29 08:33N 33°46' W 118°13'0 0.0
2014-Sep-29 07:33N 33°46' W 118°13'0 0.0
2014-Sep-29 06:33N 33°46' W 118°13'0 0.0
2014-Sep-29 05:33N 33°46' W 118°13'0 0.0
2014-Sep-29 04:33N 33°46' W 118°13'0 0.0
2014-Sep-29 03:33N 33°46' W 118°13'0 0.0
2014-Sep-29 02:33N 33°46' W 118°13'0 0.0
2014-Sep-29 01:33N 33°46' W 118°13'0 0.0
2014-Sep-29 00:33N 33°46' W 118°13'0 0.0
2014-Sep-28 23:33N 33°46' W 118°13'0 0.0
2014-Sep-28 22:33N 33°46' W 118°13'0 0.0
2014-Sep-28 21:33N 33°46' W 118°13'0 0.0
2014-Sep-28 20:33N 33°46' W 118°13'0 0.0
2014-Sep-28 19:33N 33°46' W 118°13'0 0.0
2014-Sep-28 18:33N 33°46' W 118°13'0 0.0
2014-Sep-28 17:33N 33°46' W 118°13'0 0.0
2014-Sep-28 16:33N 33°46' W 118°13'0 0.0
2014-Sep-28 15:33N 33°46' W 118°13'0 0.0
2014-Sep-28 14:33N 33°46' W 118°13'0 0.0
2014-Sep-28 13:33N 33°46' W 118°13'0 0.0
2014-Sep-28 12:33N 33°46' W 118°13'0 0.0
2014-Sep-28 11:33N 33°46' W 118°13'0 0.0
2014-Sep-28 10:33N 33°46' W 118°13'0 0.0
2014-Sep-28 09:33N 33°46' W 118°13'0 0.0
2014-Sep-28 08:33N 33°46' W 118°13'0 0.0
2014-Sep-28 07:30N 33°46' W 118°13'0 0.0
2014-Sep-28 06:33N 33°46' W 118°13'0 0.0
2014-Sep-28 05:30N 33°46' W 118°13'0 0.0
2014-Sep-28 04:33N 33°46' W 118°13'0 0.0
2014-Sep-28 03:30N 33°46' W 118°13'0 0.0
2014-Sep-28 02:33N 33°46' W 118°13'0 0.0
2014-Sep-28 01:33N 33°46' W 118°13'0 0.0
2014-Sep-28 00:33N 33°46' W 118°13'0 0.0
2014-Sep-27 23:33N 33°46' W 118°13'0 0.0
2014-Sep-27 22:33N 33°46' W 118°13'0 0.0
2014-Sep-27 21:33N 33°46' W 118°13'0 0.0
2014-Sep-27 20:30N 33°46' W 118°13'0 0.0
2014-Sep-27 19:33N 33°46' W 118°13'0 0.0
2014-Sep-27 18:33N 33°46' W 118°13'0 0.0
2014-Sep-27 17:33N 33°46' W 118°13'0 0.0
2014-Sep-27 16:33N 33°46' W 118°13'0 0.0
2014-Sep-27 15:33N 33°46' W 118°13'0 0.0
2014-Sep-27 14:33N 33°46' W 118°13'0 0.0
2014-Sep-27 13:30N 33°46' W 118°13'0 0.0
2014-Sep-27 12:33N 33°46' W 118°13'0 0.0
2014-Sep-27 11:33N 33°46' W 118°13'0 0.0
2014-Sep-27 10:33N 33°46' W 118°13'0 0.0
2014-Sep-27 09:33N 33°46' W 118°13'0 0.0
2014-Sep-27 08:33N 33°46' W 118°13'0 0.0
2014-Sep-27 07:33N 33°46' W 118°13'0 0.0
2014-Sep-27 06:30N 33°46' W 118°13'0 0.0
2014-Sep-27 05:24N 33°46' W 118°13'0 0.0
2014-Sep-27 04:30N 33°46' W 118°13'0 0.0
2014-Sep-27 03:30N 33°46' W 118°13'0 0.0
2014-Sep-27 02:30N 33°46' W 118°13'0 0.0
2014-Sep-27 01:30N 33°46' W 118°13'0 0.0
2014-Sep-27 00:24N 33°46' W 118°13'0 0.0
2014-Sep-26 23:30N 33°46' W 118°13'0 0.0
2014-Sep-26 22:30N 33°46' W 118°13'0 0.0
2014-Sep-26 21:30N 33°46' W 118°13'0 0.0
2014-Sep-26 20:33N 33°46' W 118°13'0 0.0
2014-Sep-26 19:33N 33°46' W 118°13'0 0.0
2014-Sep-26 18:33N 33°46' W 118°13'0 0.0
2014-Sep-26 17:33N 33°46' W 118°13'0 0.0
2014-Sep-26 16:33N 33°46' W 118°13'0 0.1
2014-Sep-26 15:33N 33°46' W 118°13'4 3.6
2014-Sep-26 14:33N 33°43' W 118°11'7 7.2
2014-Sep-26 13:33N 33°36' W 118°10'8 8.4
2014-Sep-26 12:33N 33°28' W 118°06'1111.5
2014-Sep-26 11:33N 33°17' W 118°02'1111.5
2014-Sep-26 10:33N 33°06' W 118°01'9 9.1
2014-Sep-26 09:33N 32°58' W 118°06'1211.5
2014-Sep-26 08:33N 32°47' W 118°11'1212.1
2014-Sep-26 07:33N 32°38' W 118°20'1212.2
2014-Sep-26 06:33N 32°28' W 118°28'1212.3
2014-Sep-26 05:33N 32°18' W 118°36'1212.2
2014-Sep-26 04:32N 32°08' W 118°46'1312.2
2014-Sep-26 03:27N 31°60' W 118°58'11 5.4
2014-Sep-26 01:23N 31°56' W 119°10'1 1.5
2014-Sep-26 00:33N 31°55' W 119°09'6 1.2
2014-Sep-25 19:31N 32°01' W 119°10'3 1.4
2014-Sep-25 17:10N 32°04' W 119°13'1 1.7
2014-Sep-25 16:31N 32°04' W 119°13'1 1.2
2014-Sep-25 15:31N 32°05' W 119°14'1 1.2
2014-Sep-25 14:31N 32°06' W 119°15'1 1.1
2014-Sep-25 13:28N 32°07' W 119°16'1 1.1
2014-Sep-25 12:22N 32°08' W 119°17'3 1.3
2014-Sep-25 10:23N 32°10' W 119°19'3 3.7
2014-Sep-25 09:33N 32°12' W 119°22'5 5.1
2014-Sep-25 08:33N 32°16' W 119°25'1010.2
2014-Sep-25 07:33N 32°11' W 119°35'1111.4
2014-Sep-25 06:33N 32°09' W 119°49'3 3.2
2014-Sep-25 05:30N 32°10' W 119°52'10 5.1
2014-Sep-25 03:33N 32°13' W 120°04'20113.2
2014-Sep-24 12:23N 34°12' W 123°18'3215.8
2014-Sep-24 10:23N 34°39' W 123°36'1315.8
2014-Sep-24 09:33N 34°51' W 123°44'1515.4
2014-Sep-24 08:33N 35°05' W 123°50'1615.7
2014-Sep-24 07:33N 35°21' W 123°49'1616.0
2014-Sep-24 06:33N 35°37' W 123°49'1615.7
2014-Sep-24 05:33N 35°53' W 123°49'1515.6
2014-Sep-24 04:33N 36°08' W 123°48'1715.6
2014-Sep-24 03:29N 36°25' W 123°48'1515.3
2014-Sep-24 02:30N 36°40' W 123°48'1515.3
2014-Sep-24 01:33N 36°55' W 123°47'1515.1
2014-Sep-24 00:33N 37°10' W 123°47'1414.4
2014-Sep-23 23:33N 37°19' W 123°33'1514.8
2014-Sep-23 22:33N 37°27' W 123°17'1514.7
2014-Sep-23 21:33N 37°36' W 123°02'1514.7
2014-Sep-23 20:33N 37°43' W 122°46'1211.9
2014-Sep-23 19:33N 37°48' W 122°32'9 9.3
2014-Sep-23 18:33N 37°55' W 122°25'1 0.6
2014-Sep-23 17:33N 37°55' W 122°25'0 0.0
2014-Sep-23 16:33N 37°55' W 122°25'0 0.0
2014-Sep-23 15:33N 37°55' W 122°25'0 0.0
2014-Sep-23 14:30N 37°55' W 122°25'0 0.0
2014-Sep-23 13:32N 37°55' W 122°25'0 0.0
2014-Sep-23 12:33N 37°55' W 122°25'0 0.0
2014-Sep-23 11:32N 37°55' W 122°25'0 0.0
2014-Sep-23 10:32N 37°55' W 122°25'0 0.0
2014-Sep-23 09:32N 37°55' W 122°25'0 0.0
2014-Sep-23 08:32N 37°55' W 122°25'0 0.0
2014-Sep-23 07:32N 37°55' W 122°25'0 0.0
2014-Sep-23 06:32N 37°55' W 122°25'0 0.0
2014-Sep-23 05:32N 37°55' W 122°25'0 0.0
2014-Sep-23 04:32N 37°55' W 122°25'0 0.0
2014-Sep-23 03:32N 37°55' W 122°25'0 0.0
2014-Sep-23 02:32N 37°55' W 122°25'0 0.0
2014-Sep-23 01:32N 37°55' W 122°25'0 0.0
2014-Sep-23 00:32N 37°55' W 122°25'0 0.0
2014-Sep-22 23:32N 37°55' W 122°25'0 0.0
2014-Sep-22 22:32N 37°55' W 122°25'0 0.0
2014-Sep-22 21:32N 37°55' W 122°25'0 0.0
2014-Sep-22 20:32N 37°55' W 122°25'0 0.0
2014-Sep-22 19:32N 37°55' W 122°25'0 0.0
2014-Sep-22 18:32N 37°55' W 122°25'0 0.0
2014-Sep-22 17:32N 37°55' W 122°25'0 0.0
2014-Sep-22 16:32N 37°55' W 122°25'0 0.0
2014-Sep-22 15:29N 37°55' W 122°25'0 0.0
2014-Sep-22 14:32N 37°55' W 122°25'0 0.0
2014-Sep-22 13:29N 37°55' W 122°25'0 0.0
2014-Sep-22 12:32N 37°55' W 122°25'0 0.0
2014-Sep-22 11:32N 37°55' W 122°25'0 0.0
2014-Sep-22 10:29N 37°55' W 122°25'0 0.0
2014-Sep-22 09:32N 37°55' W 122°25'0 0.0
2014-Sep-22 08:30N 37°55' W 122°25'0 0.0
2014-Sep-22 07:29N 37°55' W 122°25'0 0.0
2014-Sep-22 06:32N 37°55' W 122°25'0 0.0
2014-Sep-22 05:32N 37°55' W 122°25'0 0.0
2014-Sep-22 04:30N 37°55' W 122°25'0 0.0
2014-Sep-22 03:32N 37°55' W 122°25'0 0.0
2014-Sep-22 02:32N 37°55' W 122°25'0 0.0
2014-Sep-22 01:32N 37°55' W 122°25'0 0.0
2014-Sep-22 00:32N 37°55' W 122°25'0 0.0
2014-Sep-21 23:32N 37°55' W 122°25'0 0.0
2014-Sep-21 22:32N 37°55' W 122°25'0 0.0
2014-Sep-21 21:32N 37°55' W 122°25'0 0.0
2014-Sep-21 20:29N 37°55' W 122°25'0 0.0
2014-Sep-21 19:32N 37°55' W 122°25'0 0.0
2014-Sep-21 18:32N 37°55' W 122°25'0 0.0
2014-Sep-21 17:32N 37°55' W 122°25'  

Dump ship's entire track history